createdAt,value
2018-11-14T00:01:26.959Z,4.92
2018-11-14T00:03:55.421Z,4.93
2018-11-14T00:06:23.888Z,4.65
2018-11-14T00:08:52.682Z,4.64
2018-11-14T00:11:21.128Z,3.98
2018-11-14T00:13:50.213Z,4.47
2018-11-14T00:16:18.727Z,4.39
2018-11-14T00:18:47.255Z,4.41
2018-11-14T00:21:15.838Z,4.69
2018-11-14T00:23:44.294Z,4.85
2018-11-14T00:26:12.745Z,4.82
2018-11-14T00:28:41.291Z,4.87
2018-11-14T00:31:09.750Z,4.98
2018-11-14T00:33:38.205Z,5.05
2018-11-14T00:36:06.781Z,5.09
2018-11-14T00:38:35.631Z,5.09
2018-11-14T00:41:04.141Z,5.17
2018-11-14T00:43:32.623Z,5.25
2018-11-14T00:46:01.113Z,5.24
2018-11-14T00:48:30.228Z,5.36
2018-11-14T00:50:58.747Z,4.89
2018-11-14T00:53:27.272Z,4.82
2018-11-14T00:55:55.726Z,4.53
2018-11-14T00:58:24.302Z,4.53
2018-11-14T01:00:52.754Z,4.33
2018-11-14T01:03:21.454Z,4.28
2018-11-14T01:05:49.940Z,4.10
2018-11-14T01:08:18.495Z,4.66
2018-11-14T01:10:46.963Z,4.72
2018-11-14T01:13:15.494Z,4.53
2018-11-14T01:15:44.633Z,4.62
2018-11-14T01:18:13.152Z,4.28
2018-11-14T01:20:41.630Z,4.29
2018-11-14T01:23:10.168Z,4.40
2018-11-14T01:25:38.645Z,4.08
2018-11-14T01:28:07.132Z,4.05
2018-11-14T01:30:35.615Z,4.28
2018-11-14T01:33:04.125Z,4.36
2018-11-14T01:35:32.559Z,4.41
2018-11-14T01:38:01.527Z,4.67
2018-11-14T01:40:30.003Z,4.61
2018-11-14T01:42:58.622Z,4.39
2018-11-14T01:45:27.100Z,4.59
2018-11-14T01:47:55.646Z,4.39
2018-11-14T01:50:24.202Z,4.42
2018-11-14T01:54:17.094Z,4.33
2018-11-14T01:56:45.581Z,4.87
2018-11-14T01:59:14.047Z,4.33
2018-11-14T02:01:42.563Z,4.47
2018-11-14T02:04:11.048Z,4.50
2018-11-14T02:06:39.518Z,4.34
2018-11-14T02:09:08.900Z,4.50
2018-11-14T02:11:37.435Z,4.41
2018-11-14T02:14:06.410Z,4.67
2018-11-14T02:16:34.927Z,4.74
2018-11-14T02:19:03.380Z,4.49
2018-11-14T02:21:31.954Z,4.47
2018-11-14T02:24:00.488Z,4.94
2018-11-14T02:26:29.311Z,4.91
2018-11-14T02:28:57.827Z,5.19
2018-11-14T02:31:26.307Z,5.31
2018-11-14T02:33:54.773Z,5.41
2018-11-14T02:36:23.296Z,5.52
2018-11-14T02:38:51.859Z,5.59
2018-11-14T02:41:20.316Z,5.63
2018-11-14T02:43:49.868Z,5.58
2018-11-14T02:46:18.334Z,5.52
2018-11-14T02:48:46.781Z,5.49
2018-11-14T02:51:23.822Z,5.39
2018-11-14T02:53:52.409Z,5.38
2018-11-14T02:56:21.103Z,5.47
2018-11-14T02:58:49.619Z,5.49
2018-11-14T03:01:18.095Z,5.29
2018-11-14T03:03:46.554Z,5.37
2018-11-14T03:06:16.304Z,5.48
2018-11-14T03:08:44.786Z,5.11
2018-11-14T03:11:13.260Z,5.41
2018-11-14T03:13:41.804Z,5.51
2018-11-14T03:16:11.167Z,5.65
2018-11-14T03:18:40.427Z,5.70
2018-11-14T03:21:08.994Z,5.39
2018-11-14T03:23:37.472Z,5.10
2018-11-14T03:26:05.958Z,4.99
2018-11-14T03:28:34.474Z,4.95
2018-11-14T03:31:02.967Z,4.97
2018-11-14T03:33:31.456Z,4.55
2018-11-14T03:36:06.046Z,4.61
2018-11-14T03:38:34.638Z,4.45
2018-11-14T03:41:03.156Z,4.40
2018-11-14T03:43:31.649Z,4.59
2018-11-14T03:46:00.125Z,4.21
2018-11-14T03:48:28.654Z,4.47
2018-11-14T03:50:58.023Z,4.20
2018-11-14T03:53:26.543Z,4.20
2018-11-14T03:55:55.035Z,4.48
2018-11-14T03:58:23.541Z,4.38
2018-11-14T04:00:52.068Z,4.15
2018-11-14T04:03:20.568Z,4.22
2018-11-14T04:05:49.018Z,4.17
2018-11-14T04:08:19.003Z,4.52
2018-11-14T04:10:47.533Z,4.39
2018-11-14T04:13:16.202Z,4.40
2018-11-14T04:15:45.299Z,4.54
2018-11-14T04:18:13.820Z,4.57
2018-11-14T04:20:42.214Z,4.68
2018-11-14T04:23:10.654Z,4.79
2018-11-14T04:25:39.139Z,4.57
2018-11-14T04:28:08.253Z,4.61
2018-11-14T04:30:36.787Z,4.66
2018-11-14T04:33:05.802Z,4.64
2018-11-14T04:35:34.308Z,4.45
2018-11-14T04:38:02.792Z,4.12
2018-11-14T04:40:31.284Z,4.59
2018-11-14T04:42:59.867Z,4.93
2018-11-14T04:45:28.393Z,5.14
2018-11-14T04:47:56.974Z,4.81
2018-11-14T04:50:26.696Z,4.62
2018-11-14T04:52:55.522Z,4.81
2018-11-14T04:55:25.024Z,4.41
2018-11-14T04:57:54.259Z,4.53
2018-11-14T05:00:24.056Z,4.50
2018-11-14T05:02:52.781Z,4.42
2018-11-14T05:05:23.046Z,4.57
2018-11-14T05:07:51.489Z,4.42
2018-11-14T05:10:21.948Z,4.15
2018-11-14T05:12:51.682Z,4.47
2018-11-14T05:15:21.439Z,4.51
2018-11-14T05:17:51.277Z,4.54
2018-11-14T05:20:20.685Z,4.33
2018-11-14T05:22:49.799Z,4.16
2018-11-14T05:25:18.448Z,4.37
2018-11-14T05:27:46.919Z,4.60
2018-11-14T05:30:18.024Z,4.69
2018-11-14T05:32:47.361Z,4.73
2018-11-14T05:35:16.264Z,4.86
2018-11-14T05:37:44.908Z,4.72
2018-11-14T05:40:16.760Z,4.83
2018-11-14T05:42:46.022Z,4.49
2018-11-14T05:45:16.530Z,4.46
2018-11-14T05:47:46.187Z,4.45
2018-11-14T05:50:16.126Z,4.35
2018-11-14T05:52:45.110Z,4.35
2018-11-14T05:55:14.723Z,4.22
2018-11-14T05:57:43.199Z,4.27
2018-11-14T06:00:15.746Z,4.07
2018-11-14T06:02:44.906Z,4.25
2018-11-14T06:05:13.453Z,4.21
2018-11-14T06:07:41.942Z,4.45
2018-11-14T06:10:12.151Z,4.76
2018-11-14T06:12:41.885Z,4.55
2018-11-14T06:15:13.919Z,4.35
2018-11-14T06:17:43.651Z,4.19
2018-11-14T06:20:14.547Z,4.45
2018-11-14T06:22:43.885Z,4.63
2018-11-14T06:25:20.668Z,4.49
2018-11-14T06:27:51.397Z,4.22
2018-11-14T06:30:20.176Z,4.44
2018-11-14T06:32:49.431Z,4.42
2018-11-14T06:35:18.435Z,4.75
2018-11-14T06:37:47.737Z,4.43
2018-11-14T06:40:18.873Z,4.52
2018-11-14T06:42:47.863Z,4.66
2018-11-14T06:45:19.621Z,4.66
2018-11-14T06:47:49.962Z,4.61
2018-11-14T06:50:18.453Z,4.77
2018-11-14T06:52:48.252Z,4.88
2018-11-14T06:55:17.568Z,4.62
2018-11-14T06:57:46.080Z,4.58
2018-11-14T07:00:16.708Z,4.67
2018-11-14T07:02:46.224Z,4.74
2018-11-14T07:05:16.127Z,4.93
2018-11-14T07:07:44.913Z,4.29
2018-11-14T07:10:15.843Z,4.47
2018-11-14T07:12:44.549Z,4.37
2018-11-14T07:15:17.806Z,4.30
2018-11-14T07:17:48.243Z,4.22
2018-11-14T07:20:20.592Z,4.20
2018-11-14T07:22:49.410Z,4.31
2018-11-14T07:25:17.964Z,4.58
2018-11-14T07:27:46.923Z,4.62
2018-11-14T07:30:17.558Z,4.60
2018-11-14T07:32:47.501Z,4.79
2018-11-14T07:35:16.612Z,5.00
2018-11-14T07:38:25.893Z,5.14
2018-11-14T07:40:54.318Z,5.12
2018-11-14T07:43:22.778Z,5.12
2018-11-14T07:45:51.283Z,5.15
2018-11-14T07:48:20.051Z,5.39
2018-11-14T07:50:50.133Z,5.54
2018-11-14T07:53:19.379Z,5.41
2018-11-14T07:55:48.215Z,5.06
2018-11-14T07:58:16.736Z,4.51
2018-11-14T08:00:45.210Z,4.93
2018-11-14T08:03:13.739Z,5.19
2018-11-14T08:05:42.236Z,4.98
2018-11-14T08:08:10.731Z,5.09
2018-11-14T08:10:39.194Z,5.54
2018-11-14T08:13:08.201Z,5.67
2018-11-14T08:15:36.735Z,5.78
2018-11-14T08:18:05.574Z,6.12
2018-11-14T08:20:34.048Z,5.98
2018-11-14T08:23:04.314Z,5.73
2018-11-14T08:25:32.820Z,5.07
2018-11-14T08:28:01.316Z,5.45
2018-11-14T08:30:29.883Z,5.14
2018-11-14T08:32:58.380Z,4.68
2018-11-14T08:35:26.830Z,4.51
2018-11-14T08:37:55.289Z,4.75
2018-11-14T08:40:23.717Z,5.26
2018-11-14T08:42:52.204Z,5.38
2018-11-14T08:45:20.696Z,5.25
2018-11-14T08:47:51.372Z,5.28
2018-11-14T08:50:20.784Z,5.48
2018-11-14T08:52:49.317Z,5.73
2018-11-14T08:55:19.271Z,5.68
2018-11-14T08:57:48.198Z,5.78
2018-11-14T09:00:21.302Z,5.94
2018-11-14T09:02:50.321Z,6.03
2018-11-14T09:05:18.992Z,6.05
2018-11-14T09:07:48.164Z,6.69
2018-11-14T09:10:19.614Z,6.58
2018-11-14T09:12:48.645Z,6.44
2018-11-14T09:15:19.414Z,6.68
2018-11-14T09:17:48.239Z,6.84
2018-11-14T09:20:25.396Z,7.02
2018-11-14T09:22:53.894Z,6.64
2018-11-14T09:25:29.440Z,6.48
2018-11-14T09:27:58.478Z,6.81
2018-11-14T09:30:27.369Z,6.30
2018-11-14T09:32:56.304Z,6.69
2018-11-14T09:35:26.460Z,6.31
2018-11-14T09:37:55.944Z,6.46
2018-11-14T09:40:25.652Z,7.02
2018-11-14T09:42:54.197Z,7.28
2018-11-14T09:45:24.143Z,7.44
2018-11-14T09:47:52.668Z,6.95
2018-11-14T09:50:25.150Z,6.20
2018-11-14T09:52:55.891Z,6.51
2018-11-14T09:55:25.061Z,7.17
2018-11-14T09:57:53.594Z,7.87
2018-11-14T10:00:24.277Z,7.80
2018-11-14T10:02:55.758Z,7.47
2018-11-14T10:05:24.750Z,6.24
2018-11-14T10:07:53.426Z,6.98
2018-11-14T10:10:22.751Z,7.10
2018-11-14T10:12:51.442Z,6.35
2018-11-14T10:15:24.316Z,6.54
2018-11-14T10:17:53.000Z,6.59
2018-11-14T10:20:22.982Z,6.86
2018-11-14T10:22:53.350Z,6.68
2018-11-14T10:25:22.695Z,7.25
2018-11-14T10:27:51.740Z,7.15
2018-11-14T10:30:21.861Z,6.71
2018-11-14T10:32:51.520Z,7.10
2018-11-14T10:35:20.293Z,7.18
2018-11-14T10:37:48.766Z,7.76
2018-11-14T10:40:19.770Z,7.56
2018-11-14T10:42:48.834Z,7.14
2018-11-14T10:45:19.583Z,7.07
2018-11-14T10:47:48.088Z,7.29
2018-11-14T10:50:21.263Z,7.32
2018-11-14T10:52:50.182Z,7.20
2018-11-14T10:55:19.783Z,7.39
2018-11-14T10:57:48.390Z,7.41
2018-11-14T11:00:23.552Z,7.66
2018-11-14T11:02:57.775Z,7.10
2018-11-14T11:05:32.949Z,7.30
2018-11-14T11:08:07.152Z,7.52
2018-11-14T11:10:40.953Z,7.28
2018-11-14T11:13:11.747Z,7.23
2018-11-14T11:15:46.208Z,7.32
2018-11-14T11:18:16.119Z,7.49
2018-11-14T11:20:44.599Z,6.97
2018-11-14T11:23:13.131Z,7.19
2018-11-14T11:25:42.068Z,7.39
2018-11-14T11:28:10.575Z,7.18
2018-11-14T11:30:39.396Z,7.31
2018-11-14T11:33:07.928Z,7.72
2018-11-14T11:35:36.473Z,7.58
2018-11-14T11:38:05.614Z,7.35
2018-11-14T11:40:34.654Z,7.77
2018-11-14T11:43:04.384Z,7.62
2018-11-14T11:45:33.571Z,7.61
2018-11-14T11:48:02.688Z,7.69
2018-11-14T11:50:31.297Z,7.66
2018-11-14T11:53:00.487Z,7.54
2018-11-14T11:55:29.897Z,7.70
2018-11-14T11:57:58.977Z,7.69
2018-11-14T12:00:27.623Z,7.53
2018-11-14T12:02:55.986Z,7.54
2018-11-14T12:05:24.478Z,7.48
2018-11-14T12:07:52.898Z,7.57
2018-11-14T12:10:21.342Z,7.63
2018-11-14T12:12:49.842Z,7.72
2018-11-14T12:15:18.309Z,7.79
2018-11-14T12:17:46.973Z,8.02
2018-11-14T12:20:15.851Z,7.75
2018-11-14T12:22:44.412Z,7.64
2018-11-14T12:25:14.813Z,7.71
2018-11-14T12:27:43.733Z,7.91
2018-11-14T12:30:15.750Z,7.64
2018-11-14T12:32:44.983Z,7.67
2018-11-14T12:35:14.739Z,7.64
2018-11-14T12:37:43.391Z,7.92
2018-11-14T12:40:13.010Z,7.95
2018-11-14T12:42:41.872Z,8.00
2018-11-14T12:45:13.215Z,7.99
2018-11-14T12:47:41.668Z,7.74
2018-11-14T12:50:11.106Z,7.81
2018-11-14T12:52:39.940Z,7.67
2018-11-14T12:55:11.016Z,7.56
2018-11-14T12:57:39.532Z,7.70
2018-11-14T13:00:11.238Z,7.70
2018-11-14T13:02:39.759Z,7.67
2018-11-14T13:05:09.609Z,7.43
2018-11-14T13:07:38.875Z,7.50
2018-11-14T13:10:08.669Z,7.51
2018-11-14T13:12:37.122Z,7.54
2018-11-14T13:15:06.132Z,7.45
2018-11-14T13:17:34.547Z,7.43
2018-11-14T13:20:03.541Z,7.41
2018-11-14T13:22:31.954Z,7.30
2018-11-14T13:25:01.029Z,7.22
2018-11-14T13:27:30.040Z,7.14
2018-11-14T13:29:58.430Z,7.24
2018-11-14T13:32:27.542Z,7.29
2018-11-14T13:34:56.050Z,7.18
2018-11-14T13:37:24.509Z,7.15
2018-11-14T13:39:53.648Z,7.21
2018-11-14T13:42:22.132Z,7.20
2018-11-14T13:44:51.201Z,7.25
2018-11-14T13:47:19.654Z,7.21
2018-11-14T13:49:48.509Z,7.36
2018-11-14T13:52:16.803Z,7.34
2018-11-14T13:54:45.303Z,7.29
2018-11-14T13:57:14.269Z,7.30
2018-11-14T13:59:42.729Z,7.33
2018-11-14T14:02:11.164Z,7.31
2018-11-14T14:04:39.660Z,7.43
2018-11-14T14:07:08.193Z,7.36
2018-11-14T14:09:36.742Z,7.29
2018-11-14T14:12:05.380Z,7.32
2018-11-14T14:14:33.859Z,7.36
2018-11-14T14:17:03.013Z,7.42
2018-11-14T14:19:31.554Z,7.32
2018-11-14T14:21:59.984Z,7.54
2018-11-14T14:24:28.517Z,7.50
2018-11-14T14:26:56.960Z,7.36
2018-11-14T14:29:25.390Z,7.39
2018-11-14T14:31:53.817Z,7.26
2018-11-14T14:34:22.308Z,7.39
2018-11-14T14:36:51.419Z,7.26
2018-11-14T14:39:19.898Z,7.19
2018-11-14T14:41:48.380Z,7.15
2018-11-14T14:44:16.827Z,7.20
2018-11-14T14:46:45.281Z,7.25
2018-11-14T14:49:13.731Z,7.21
2018-11-14T14:51:43.011Z,7.34
2018-11-14T14:54:11.473Z,7.19
2018-11-14T14:56:40.701Z,7.21
2018-11-14T14:59:10.146Z,7.14
2018-11-14T15:01:38.588Z,7.11
2018-11-14T15:04:07.217Z,7.15
2018-11-14T15:06:35.759Z,7.14
2018-11-14T15:09:04.984Z,7.07
2018-11-14T15:11:33.408Z,7.16
2018-11-14T15:14:01.908Z,7.09
2018-11-14T15:16:30.960Z,7.12
2018-11-14T15:18:59.426Z,7.00
2018-11-14T15:21:27.871Z,7.02
2018-11-14T15:23:56.364Z,7.02
2018-11-14T15:26:24.805Z,6.88
2018-11-14T15:28:53.321Z,6.88
2018-11-14T15:31:21.841Z,6.85
2018-11-14T15:33:50.926Z,6.84
2018-11-14T15:36:20.009Z,6.78
2018-11-14T15:38:48.507Z,6.75
2018-11-14T15:41:17.404Z,6.83
2018-11-14T15:43:46.105Z,6.81
2018-11-14T15:46:14.521Z,6.88
2018-11-14T15:48:42.974Z,6.81
2018-11-14T15:51:11.708Z,7.00
2018-11-14T15:53:40.174Z,6.99
2018-11-14T15:56:10.324Z,6.77
2018-11-14T15:58:40.114Z,6.89
2018-11-14T16:01:08.658Z,6.82
2018-11-14T16:03:37.185Z,6.80
2018-11-14T16:06:07.428Z,6.79
2018-11-14T16:08:36.145Z,6.80
2018-11-14T16:11:04.601Z,6.77
2018-11-14T16:13:36.034Z,6.63
2018-11-14T16:16:04.611Z,6.71
2018-11-14T16:18:33.291Z,6.64
2018-11-14T16:21:01.876Z,6.53
2018-11-14T16:23:30.359Z,6.46
2018-11-14T16:25:59.041Z,6.48
2018-11-14T16:28:27.529Z,6.38
2018-11-14T16:30:56.053Z,6.38
2018-11-14T16:33:25.008Z,6.40
2018-11-14T16:35:53.493Z,6.28
2018-11-14T16:38:22.712Z,6.21
2018-11-14T16:40:51.984Z,6.18
2018-11-14T16:43:20.491Z,6.18
2018-11-14T16:45:49.067Z,6.19
2018-11-14T16:48:18.202Z,6.20
2018-11-14T16:50:47.082Z,6.33
2018-11-14T16:53:15.622Z,6.41
2018-11-14T16:55:44.198Z,6.49
2018-11-14T16:58:12.758Z,6.53
2018-11-14T17:00:41.336Z,6.40
2018-11-14T17:03:10.121Z,6.61
2018-11-14T17:05:38.588Z,6.77
2018-11-14T17:08:07.303Z,6.81
2018-11-14T17:10:35.815Z,6.85
2018-11-14T17:13:05.007Z,6.96
2018-11-14T17:15:33.567Z,6.92
2018-11-14T17:18:03.720Z,7.05
2018-11-14T17:20:34.023Z,7.05
2018-11-14T17:23:02.569Z,6.97
2018-11-14T17:25:31.235Z,7.08
2018-11-14T17:27:59.874Z,7.19
2018-11-14T17:30:28.823Z,7.07
2018-11-14T17:32:57.318Z,7.10
2018-11-14T17:35:25.829Z,7.24
2018-11-14T17:37:54.586Z,7.35
2018-11-14T17:40:25.089Z,7.40
2018-11-14T17:42:54.673Z,7.41
2018-11-14T17:45:26.388Z,7.49
2018-11-14T17:47:55.120Z,7.39
2018-11-14T17:50:30.047Z,7.48
2018-11-14T17:52:59.919Z,7.57
2018-11-14T17:55:28.872Z,7.58
2018-11-14T17:57:57.602Z,7.54
2018-11-14T18:00:29.627Z,7.60
2018-11-14T18:02:58.197Z,7.68
2018-11-14T18:05:27.913Z,7.65
2018-11-14T18:07:56.768Z,7.63
2018-11-14T18:10:29.555Z,7.63
2018-11-14T18:13:01.888Z,7.71
2018-11-14T18:15:30.678Z,7.68
2018-11-14T18:17:59.571Z,7.52
2018-11-14T18:20:29.682Z,7.79
2018-11-14T18:22:58.580Z,7.59
2018-11-14T18:25:27.148Z,7.61
2018-11-14T18:27:55.780Z,7.54
2018-11-14T18:30:25.555Z,7.56
2018-11-14T18:32:55.144Z,7.71
2018-11-14T18:35:24.358Z,7.65
2018-11-14T18:37:53.907Z,7.60
2018-11-14T18:40:23.881Z,7.64
2018-11-14T18:42:53.251Z,7.37
2018-11-14T18:45:24.175Z,7.78
2018-11-14T18:47:53.425Z,7.76
2018-11-14T18:50:22.464Z,7.66
2018-11-14T18:52:52.009Z,7.64
2018-11-14T18:55:21.817Z,7.45
2018-11-14T18:57:52.796Z,7.22
2018-11-14T19:00:27.008Z,7.20
2018-11-14T19:02:55.866Z,7.52
2018-11-14T19:05:24.387Z,7.67
2018-11-14T19:07:53.015Z,7.57
2018-11-14T19:10:22.795Z,7.40
2018-11-14T19:12:52.695Z,7.59
2018-11-14T19:15:24.317Z,7.19
2018-11-14T19:17:52.936Z,7.15
2018-11-14T19:20:22.678Z,7.21
2018-11-14T19:22:51.879Z,7.13
2018-11-14T19:25:23.101Z,7.27
2018-11-14T19:27:51.718Z,7.16
2018-11-14T19:30:22.385Z,7.18
2018-11-14T19:32:52.284Z,7.11
2018-11-14T19:35:20.931Z,7.26
2018-11-14T19:37:50.529Z,7.28
2018-11-14T19:40:23.605Z,7.47
2018-11-14T19:42:54.047Z,7.59
2018-11-14T19:45:26.064Z,7.61
2018-11-14T19:47:55.724Z,7.68
2018-11-14T19:50:24.891Z,7.78
2018-11-14T19:52:54.472Z,7.56
2018-11-14T19:55:24.570Z,7.47
2018-11-14T19:57:54.503Z,7.52
2018-11-14T20:00:28.977Z,7.62
2018-11-14T20:02:57.848Z,7.56
2018-11-14T20:05:26.255Z,7.56
2018-11-14T20:07:54.755Z,7.68
2018-11-14T20:10:27.666Z,7.58
2018-11-14T20:12:56.781Z,7.52
2018-11-14T20:15:26.603Z,7.87
2018-11-14T20:17:55.069Z,7.74
2018-11-14T20:20:25.040Z,7.87
2018-11-14T20:22:54.493Z,7.69
2018-11-14T20:25:23.040Z,7.57
2018-11-14T20:27:51.535Z,7.40
2018-11-14T20:30:23.488Z,7.45
2018-11-14T20:32:53.297Z,7.07
2018-11-14T20:35:22.580Z,6.94
2018-11-14T20:37:51.842Z,7.17
2018-11-14T20:40:21.304Z,7.26
2018-11-14T20:42:50.819Z,7.17
2018-11-14T20:45:25.452Z,7.18
2018-11-14T20:47:54.460Z,7.19
2018-11-14T20:50:23.927Z,7.36
2018-11-14T20:52:58.191Z,7.40
2018-11-14T20:55:26.945Z,7.38
2018-11-14T20:57:55.852Z,7.32
2018-11-14T21:00:30.406Z,7.44
2018-11-14T21:02:59.081Z,7.38
2018-11-14T21:05:28.459Z,7.33
2018-11-14T21:07:57.019Z,7.30
2018-11-14T21:10:27.072Z,7.24
2018-11-14T21:12:55.846Z,7.24
2018-11-14T21:15:25.600Z,7.28
2018-11-14T21:17:54.983Z,7.38
2018-11-14T21:20:24.240Z,7.25
2018-11-14T21:22:52.790Z,7.02
2018-11-14T21:25:22.168Z,7.12
2018-11-14T21:27:51.156Z,7.19
2018-11-14T21:30:20.837Z,7.12
2018-11-14T21:32:49.297Z,7.22
2018-11-14T21:35:21.184Z,7.23
2018-11-14T21:37:52.120Z,7.30
2018-11-14T21:40:20.595Z,7.17
2018-11-14T21:42:49.090Z,7.14
2018-11-14T21:45:19.150Z,7.15
2018-11-14T21:47:52.672Z,7.09
2018-11-14T21:50:22.106Z,7.10
2018-11-14T21:52:52.895Z,6.95
2018-11-14T21:55:21.478Z,6.92
2018-11-14T21:57:50.126Z,7.02
2018-11-14T22:00:20.307Z,7.05
2018-11-14T22:02:51.251Z,7.06
2018-11-14T22:05:19.716Z,7.15
2018-11-14T22:07:48.165Z,6.79
2018-11-14T22:10:17.852Z,6.96
2018-11-14T22:12:46.850Z,7.05
2018-11-14T22:15:16.378Z,7.05
2018-11-14T22:17:44.767Z,6.87
2018-11-14T22:20:14.311Z,6.94
2018-11-14T22:22:43.488Z,6.94
2018-11-14T22:25:13.197Z,6.95
2018-11-14T22:27:41.816Z,6.77
2018-11-14T22:30:12.123Z,6.91
2018-11-14T22:32:41.341Z,6.99
2018-11-14T22:35:11.429Z,6.86
2018-11-14T22:37:40.085Z,6.81
2018-11-14T22:40:12.017Z,6.77
2018-11-14T22:42:40.540Z,6.82
2018-11-14T22:45:11.692Z,6.82
2018-11-14T22:47:40.928Z,7.00
2018-11-14T22:50:11.052Z,7.02
2018-11-14T22:52:40.384Z,6.95
2018-11-14T22:55:09.764Z,6.94
2018-11-14T22:57:38.524Z,6.92
2018-11-14T23:00:15.410Z,6.87
2018-11-14T23:02:47.403Z,6.88
2018-11-14T23:05:17.480Z,6.69
2018-11-14T23:07:47.626Z,6.71
2018-11-14T23:10:16.300Z,6.74
2018-11-14T23:12:45.904Z,6.88
2018-11-14T23:15:14.475Z,7.02
2018-11-14T23:17:42.883Z,7.05
2018-11-14T23:20:13.000Z,6.93
2018-11-14T23:22:42.675Z,6.76
2018-11-14T23:25:11.825Z,6.94
2018-11-14T23:27:41.895Z,6.93
2018-11-14T23:30:11.747Z,6.92
2018-11-14T23:32:41.164Z,7.08
2018-11-14T23:35:15.461Z,7.05
2018-11-14T23:37:45.123Z,7.13
2018-11-14T23:40:13.660Z,7.05
2018-11-14T23:42:42.533Z,7.07
2018-11-14T23:45:15.362Z,7.16
2018-11-14T23:47:44.704Z,7.13
2018-11-14T23:50:14.952Z,7.03
2018-11-14T23:52:45.364Z,7.10
2018-11-14T23:55:14.319Z,7.17
2018-11-14T23:57:42.865Z,7.24
